Flight Track Log - Related Links

Times and Time Zones

All times are in EST time to prevent confusion due to time zone crossing. See the N449ND flight status page for this flight to view local times or setup timezone preferences in your user account.

Time Position Orientation Groundspeed Altitude Reporting Facility
EST Latitude Longitude Course Direction KTS MPH feet Rate Location/Type
Fri 11:32:14 AM 27.4311 -80.3667 156° South 92 106 2,100  Level Miami Center
Fri 11:33:14 AM 27.4064 -80.3542 156° South 97 112 2,500 450 Climbing Miami Center
Fri 11:34:14 AM 27.4050 -80.3214 93° East 91 105 3,000 300 Climbing Miami Center
Fri 11:35:14 AM 27.4103 -80.2842 81° East 110 127 3,100 50 Climbing Miami Center
Fri 11:36:14 AM 27.4311 -80.2800 10° North 76 87 3,100 -50 Level Miami Center
Fri 11:37:14 AM 27.4497 -80.2947 325° Northwest 62 71 3,000  Descending Miami Center
Fri 11:38:14 AM 27.4725 -80.3000 348° North 83 96 3,100 50 Climbing Miami Center
Fri 11:39:14 AM 27.4939 -80.2750 46° Northeast 88 101 3,100  Level Miami Center
Fri 11:40:14 AM 27.5194 -80.2522 38° Northeast 113 130 3,100 -50 Level Miami Center
Fri 11:41:14 AM 27.5406 -80.2411 25° Northeast 113 130 3,000 -300 Descending Miami Center
Fri 11:42:14 AM 27.5742 -80.2422 358° North 88 101 2,500 -550 Descending Miami Center
Fri 11:43:14 AM 27.5925 -80.2592 321° Northwest 88 101 1,900 -350 Descending Miami Center
Fri 11:44:14 AM 27.6003 -80.2781 295° West 83 96 1,800  Descending Miami Center
Fri 11:45:14 AM 27.6122 -80.3019 299° West 78 90 1,900 -50 Climbing Miami Center
Fri 11:46:14 AM 27.6200 -80.3231 293° West 78 90 1,700 -450 Descending Miami Center
Fri 11:47:14 AM 27.6281 -80.3444 293° West 73 84 1,000 -550 Descending Miami Center
Fri 11:48:14 AM 27.6339 -80.3611 292° West 73 84 600 -200 Descending Miami Center
Fri 11:49:14 AM 27.6417 -80.3872 289° West 73 84 600 -50 Level Miami Center
Fri 11:50:14 AM 27.6494 -80.4108 290° West 79 91 500 250 Descending Miami Center
Fri 11:51:14 AM 27.6722 -80.4117 358° North 65 75 1,100 545 Climbing Miami Center
Fri 11:52:26 AM 27.6997 -80.3936 30° Northeast 88 101 1,700 545 Climbing Miami Center
Fri 11:53:26 AM 27.7172 -80.3708 49° Northeast 91 105 2,300 200 Climbing Miami Center
Fri 11:54:26 AM 27.7053 -80.3375 112° Southeast 93 107 2,100 -100 Descending Miami Center
Fri 11:55:26 AM 27.6981 -80.2997 102° East 112 129 2,100  Level Miami Center
Fri 11:56:26 AM 27.6883 -80.2667 108° East 118 136 2,100  Level Miami Center
Fri 11:57:26 AM 27.6722 -80.2403 125° Southeast 110 127 2,100  Level Miami Center
Fri 11:58:26 AM 27.6392 -80.2278 161° South 101 116 2,100  Level Miami Center
Fri 11:59:26 AM 27.6142 -80.2269 178° South 106 122 2,100 -33 Level Miami Center
Fri 12:01:26 PM 27.6089 -80.2736 263° West 87 100 2,000 -67 Descending Miami Center
Fri 12:02:26 PM 27.6122 -80.2994 278° West 87 100 1,900 -150 Descending Miami Center
Fri 12:03:26 PM 27.6200 -80.3256 289° West 87 100 1,700 -350 Descending Miami Center
Fri 12:04:26 PM 27.6278 -80.3469 292° West 87 100 1,200 -550 Descending Miami Center
Fri 12:05:26 PM 27.6358 -80.3658 296° West 82 94 600 -350 Descending Miami Center
Fri 12:06:26 PM 27.6417 -80.3872 287° West 77 89 500 266 Descending Miami Center
Fri 12:14:50 PM 27.4664 -80.2928 222° Southwest 122 140 3,100 277 Climbing Miami Center
Fri 12:15:00 PM 27.4975 -80.3726 222° Southwest  Level Estimated
Fri 12:15:50 PM 27.4375 -80.2733 149° Southeast 109 125 3,100  Level Miami Center
Fri 12:16:00 PM 27.4975 -80.3726 222° Southwest  Level Estimated
Fri 12:16:50 PM 27.4172 -80.2469 131° Southeast 109 125 2,900  Level Miami Center
Fri 12:17:00 PM 27.4975 -80.3726 222° Southwest  Level Estimated
Fri 12:17:50 PM 27.4161 -80.2072 92° East 104 120 2,500  Level Miami Center
Fri 12:18:00 PM 27.4975 -80.3726 222° Southwest  Level Estimated
Fri 12:18:50 PM 27.4106 -80.1742 101° East 117 135 2,100  Level Miami Center
Fri 12:19:00 PM 27.4975 -80.3726 222° Southwest  Level Estimated
Fri 12:19:50 PM 27.4031 -80.1389 103° East 123 142 2,100  Level Miami Center
Fri 12:20:50 PM 27.3956 -80.0989 102° East 123 142 2,100  Level Miami Center
Fri 12:21:50 PM 27.3828 -80.1125 223° Southwest 60 69 2,100  Level Miami Center
Fri 12:22:50 PM 27.3719 -80.1311 237° Southwest 47 54 2,100  Level Miami Center
Fri 12:23:50 PM 27.3631 -80.1542 247° West 84 97 2,100  Level Miami Center
Fri 12:24:50 PM 27.3542 -80.1797 249° West 89 102 2,100 100 Level Miami Center
Fri 12:25:50 PM 27.3453 -80.2028 247° West 94 108 2,300  Climbing Miami Center
Fri 12:26:50 PM 27.3614 -80.2242 310° West 84 97 2,100 -100 Descending Miami Center
Fri 12:27:50 PM 27.3758 -80.2411 314° West 84 97 2,100 50 Level Miami Center
Fri 12:28:50 PM 27.3942 -80.2581 321° Northwest 84 97 2,200 100 Climbing Miami Center
Fri 12:29:50 PM 27.4125 -80.2794 314° West 90 104 2,300 -200 Climbing Miami Center
Fri 12:30:50 PM 27.4244 -80.2964 308° West 90 104 1,800 -600 Descending Miami Center
Fri 12:31:50 PM 27.4389 -80.3108 318° Northwest 84 97 1,100 -550 Descending Miami Center
Fri 12:32:50 PM 27.4511 -80.3228 319° Northwest 71 82 700 -150 Descending Miami Center
Fri 12:33:50 PM 27.4694 -80.3350 329° Northwest 71 82 800  Climbing Miami Center
Fri 12:34:50 PM 27.4881 -80.3472 330° Northwest 71 82 700 -100 Descending Miami Center
Fri 12:36:00 PM 27.4975 -80.3726 321° Northwest  Level Estimated

Login

Don't have an account? Register now (free) for customized features, flight alerts, and more!